Aérodrome :
LOGIN :

S'inscrire | Disclaimer

   EN    FR    IT 

 










Légende :    VFR   VFR Marginal   IFR   IFR Intensif   IFR Très Intensif
Visi : 
Plafond : 
>= 8 km
>= 3000ft
5 à 8 km
1000 à 3000 ft
1500m à 5 km
500 à 1000 ft
800 à 1500m
200 à 500 ft
< 800m
< 200 ft
Symboles :   Orages  Brouillard  Fortes neiges  Fortes précipitations  Vent > 20 kt
SIGMETs :   Divers  Orages  Givrage  Turbulence  Onde Orograph.  Cendres Volcan.







- Altitude de l'aérodrome : 505 ft
- Code IATA : SXB
- Voir les cartes d'approche


LFST - Strasbourg

DERNIER METAR :
  • 192230Z AUTO 34002KT 5000 BR BKN036 01/M00 Q1023 TEMPO 0500 BCFG VV///

METARs EXPIRÉS :
  • 192200Z AUTO 24003KT 4800 BR FEW042 02/01 Q1023 NOSIG
  • 192130Z AUTO VRB01KT 4900 2000 R23/0900U BR NSC 02/01 Q1023 NOSIG
  • 192100Z AUTO 29002KT 6000 NSC 03/02 Q1023 TEMPO 4000 BR
  • 192030Z AUTO 28003KT 8000 NSC 04/03 Q1023 TEMPO 4000 BR
  • 192000Z AUTO 24004KT 9000 NSC 05/03 Q1023 TEMPO 4000 BR
  • 191930Z AUTO VRB02KT CAVOK 05/03 Q1022 TEMPO 4000 BR

TAF AMD TAF LFST
Valide du 19 à 22h jusqu'au 20 à 18h UTC


192209Z 1922/2018 VRB03KT 4000 BR FEW040
TEMPO 1922/2010 2000
PROB40
TEMPO 2000/2010 0500 BCFG VV///
PROB40
TEMPO 2010/2012 BKN003
Pas de NOTAMs connus pour ce terrain.



MET'MAP, la Météo Aéronautique d'un coup d'oeil ! - Copyright ORBIFLY Décembre 2007 - Disclaimer

ORBIFLY MET'MAP TEAM :

Programmation & Développement : Alexandra Zaïnal
Conception & Développement : Baudouin d'Aumeries
Co-Programmation & Développement : Marc-Olivier Méhu
Soutien technique & logistique : Manuel Goepfert

Contact : metmap@orbifly.com




SOURCES & CREDITS :

   NOAA